createdAt,value
2022-08-26T00:04:26.707Z,2.06
2022-08-26T00:09:33.732Z,2.17
2022-08-26T00:14:40.261Z,2.09
2022-08-26T00:19:47.461Z,2.38
2022-08-26T00:24:54.204Z,2.05
2022-08-26T00:30:01.290Z,2.21
2022-08-26T00:35:08.316Z,2.04
2022-08-26T00:40:15.409Z,2.30
2022-08-26T00:45:22.350Z,2.47
2022-08-26T00:50:29.355Z,2.22
2022-08-26T00:55:38.037Z,2.21
2022-08-26T01:00:43.013Z,2.17
2022-08-26T01:05:49.451Z,2.23
2022-08-26T01:10:56.092Z,2.27
2022-08-26T01:16:03.050Z,2.23
2022-08-26T01:21:10.090Z,2.33
2022-08-26T01:26:19.665Z,2.18
2022-08-26T01:31:23.692Z,2.27
2022-08-26T01:36:30.576Z,2.09
2022-08-26T01:41:37.664Z,2.16
2022-08-26T01:46:46.158Z,2.28
2022-08-26T01:51:51.176Z,2.09
2022-08-26T01:56:58.125Z,1.93
2022-08-26T02:02:05.251Z,2.32
2022-08-26T02:07:12.181Z,2.28
2022-08-26T02:12:19.259Z,2.58
2022-08-26T02:17:25.722Z,2.21
2022-08-26T02:22:32.780Z,2.18
2022-08-26T02:27:39.747Z,2.44
2022-08-26T02:32:46.679Z,2.37
2022-08-26T02:37:53.192Z,2.35
2022-08-26T02:43:00.180Z,2.28
2022-08-26T02:48:06.613Z,2.23
2022-08-26T02:53:13.653Z,2.65
2022-08-26T02:58:20.620Z,2.33
2022-08-26T03:03:27.214Z,2.36
2022-08-26T03:08:33.699Z,2.31
2022-08-26T03:13:40.752Z,2.56
2022-08-26T03:18:52.168Z,2.50
2022-08-26T03:23:54.193Z,2.32
2022-08-26T03:29:00.823Z,2.21
2022-08-26T03:34:07.785Z,2.16
2022-08-26T03:39:14.885Z,2.22
2022-08-26T03:44:21.914Z,2.27
2022-08-26T03:49:29.069Z,2.02
2022-08-26T03:54:35.881Z,2.22
2022-08-26T03:59:43.016Z,2.24
2022-08-26T04:04:49.981Z,2.75
2022-08-26T04:09:57.141Z,2.58
2022-08-26T04:15:04.073Z,2.40
2022-08-26T04:20:11.129Z,2.29
2022-08-26T04:25:18.049Z,2.67
2022-08-26T04:30:25.213Z,2.79
2022-08-26T04:35:32.142Z,2.52
2022-08-26T04:40:39.126Z,2.69
2022-08-26T04:45:45.592Z,2.59
2022-08-26T04:50:52.746Z,2.35
2022-08-26T04:55:59.693Z,2.67
2022-08-26T05:01:06.759Z,2.90
2022-08-26T05:06:13.825Z,2.61
2022-08-26T05:11:20.924Z,2.80
2022-08-26T05:16:27.439Z,2.61
2022-08-26T05:21:34.527Z,2.91
2022-08-26T05:26:41.491Z,2.80
2022-08-26T05:31:48.205Z,2.68
2022-08-26T05:36:54.644Z,2.39
2022-08-26T05:42:01.777Z,2.35
2022-08-26T05:47:08.221Z,2.23
2022-08-26T05:52:14.839Z,2.25
2022-08-26T05:57:22.656Z,2.52
2022-08-26T06:02:28.405Z,2.77
2022-08-26T06:07:35.309Z,3.09
2022-08-26T06:12:42.378Z,2.55
2022-08-26T06:17:48.876Z,2.84
2022-08-26T06:22:56.002Z,2.38
2022-08-26T06:28:03.010Z,2.50
2022-08-26T06:33:10.200Z,2.29
2022-08-26T06:38:16.961Z,2.40
2022-08-26T06:43:23.514Z,2.12
2022-08-26T06:48:30.453Z,2.14
2022-08-26T06:53:37.503Z,2.06
2022-08-26T06:58:44.055Z,1.93
2022-08-26T07:03:51.085Z,1.77
2022-08-26T07:08:57.554Z,1.44
2022-08-26T07:14:04.241Z,1.78
2022-08-26T07:19:11.606Z,1.62
2022-08-26T07:24:17.832Z,1.47
2022-08-26T07:29:25.235Z,1.68
2022-08-26T07:34:33.385Z,1.68
2022-08-26T07:39:40.322Z,1.54
2022-08-26T07:44:45.487Z,1.61
2022-08-26T07:49:52.667Z,1.59
2022-08-26T07:54:59.471Z,1.53
2022-08-26T08:00:06.467Z,1.74
2022-08-26T08:05:13.452Z,1.53
2022-08-26T08:10:20.844Z,1.48
2022-08-26T08:15:26.804Z,1.48
2022-08-26T08:20:33.932Z,1.43
2022-08-26T08:25:40.866Z,1.57
2022-08-26T08:30:48.029Z,1.28
2022-08-26T08:35:54.946Z,1.35
2022-08-26T08:41:02.096Z,1.62
2022-08-26T08:46:08.646Z,1.41
2022-08-26T08:51:15.736Z,1.31
2022-08-26T08:56:22.691Z,1.50
2022-08-26T09:01:29.790Z,1.47
2022-08-26T09:06:36.724Z,1.56
2022-08-26T09:11:43.291Z,1.47
2022-08-26T09:16:50.370Z,1.60
2022-08-26T09:21:57.362Z,1.51
2022-08-26T09:27:04.316Z,1.49
2022-08-26T09:32:10.822Z,1.39
2022-08-26T09:37:17.981Z,1.43
2022-08-26T09:42:24.902Z,1.60
2022-08-26T09:47:32.015Z,1.76
2022-08-26T09:52:40.602Z,1.73
2022-08-26T09:57:45.491Z,1.49
2022-08-26T10:02:53.690Z,1.64
2022-08-26T10:07:59.567Z,1.59
2022-08-26T10:13:05.410Z,1.92
2022-08-26T10:18:12.308Z,1.70
2022-08-26T10:23:19.345Z,1.80
2022-08-26T10:28:26.437Z,1.60
2022-08-26T10:33:33.376Z,1.73
2022-08-26T10:38:40.486Z,1.58
2022-08-26T10:43:46.951Z,1.77
2022-08-26T10:48:53.523Z,1.77
2022-08-26T10:53:59.993Z,1.69
2022-08-26T10:59:06.963Z,1.71
2022-08-26T11:04:13.490Z,1.65
2022-08-26T11:09:20.512Z,1.89
2022-08-26T11:14:29.321Z,1.69
2022-08-26T11:19:58.969Z,1.48
2022-08-26T11:24:40.096Z,1.68
2022-08-26T11:29:46.652Z,1.71
2022-08-26T11:34:54.397Z,1.67
2022-08-26T11:40:01.562Z,1.53
2022-08-26T11:45:08.027Z,1.88
2022-08-26T11:50:15.120Z,2.03
2022-08-26T11:55:23.193Z,1.60
2022-08-26T12:00:33.407Z,1.54
2022-08-26T12:05:35.283Z,1.74
2022-08-26T12:10:42.336Z,1.62
2022-08-26T12:15:48.820Z,1.79
2022-08-26T12:20:55.952Z,1.76
2022-08-26T12:26:02.885Z,1.84
2022-08-26T12:31:09.699Z,1.78
2022-08-26T12:36:16.522Z,1.82
2022-08-26T12:41:23.566Z,1.85
2022-08-26T12:46:30.472Z,2.09
2022-08-26T12:51:37.412Z,1.85
2022-08-26T12:56:44.500Z,1.71
2022-08-26T13:01:51.516Z,1.97
2022-08-26T13:06:58.492Z,1.88
2022-08-26T13:12:05.424Z,1.92
2022-08-26T13:17:12.567Z,1.91
2022-08-26T13:22:19.527Z,1.71
2022-08-26T13:27:26.617Z,1.91
2022-08-26T13:32:33.604Z,1.97
2022-08-26T13:37:40.704Z,2.00
2022-08-26T13:42:49.826Z,1.89
2022-08-26T13:47:53.879Z,1.80
2022-08-26T13:53:00.831Z,1.98
2022-08-26T13:58:08.124Z,1.88
2022-08-26T14:03:14.877Z,1.85
2022-08-26T14:08:21.862Z,2.00
2022-08-26T14:13:28.784Z,1.98
2022-08-26T14:18:41.051Z,1.97
2022-08-26T14:23:42.462Z,2.24
2022-08-26T14:28:49.539Z,2.17
2022-08-26T14:33:56.471Z,2.14
2022-08-26T14:39:03.544Z,2.14
2022-08-26T14:44:10.394Z,2.23
2022-08-26T14:49:17.565Z,2.35
2022-08-26T14:54:24.579Z,2.35
2022-08-26T14:59:31.624Z,2.30
2022-08-26T15:04:38.564Z,2.21
2022-08-26T15:09:45.547Z,2.39
2022-08-26T15:14:52.483Z,2.47
2022-08-26T15:19:59.535Z,2.28
2022-08-26T15:25:06.483Z,2.43
2022-08-26T15:30:13.484Z,2.33
2022-08-26T15:35:20.413Z,2.29
2022-08-26T15:40:27.449Z,2.14
2022-08-26T15:45:34.328Z,2.43
2022-08-26T15:50:41.456Z,2.47
2022-08-26T15:55:48.442Z,2.24
2022-08-26T16:00:54.966Z,2.34
2022-08-26T16:06:01.967Z,2.25
2022-08-26T16:11:08.973Z,2.29
2022-08-26T16:16:15.944Z,2.32
2022-08-26T16:21:23.226Z,2.79
2022-08-26T16:26:30.169Z,2.77
2022-08-26T16:31:37.417Z,2.78
2022-08-26T16:36:44.251Z,3.01
2022-08-26T16:41:51.275Z,2.61
2022-08-26T16:46:58.704Z,2.71
2022-08-26T16:52:05.030Z,2.52
2022-08-26T16:57:12.038Z,3.23
2022-08-26T17:02:19.397Z,2.90
2022-08-26T17:07:26.309Z,3.53
2022-08-26T17:12:33.414Z,2.81
2022-08-26T17:17:40.392Z,2.44
2022-08-26T17:22:47.353Z,2.60
2022-08-26T17:27:54.376Z,2.20
2022-08-26T17:33:01.327Z,2.06
2022-08-26T17:38:09.080Z,2.29
2022-08-26T17:43:15.995Z,2.49
2022-08-26T17:48:23.011Z,2.16
2022-08-26T17:53:29.986Z,2.26
2022-08-26T17:58:37.154Z,2.24
2022-08-26T18:03:44.127Z,2.41
2022-08-26T18:08:51.188Z,2.49
2022-08-26T18:13:58.144Z,2.63
2022-08-26T18:19:05.323Z,2.83
2022-08-26T18:24:14.230Z,2.71
2022-08-26T18:29:18.769Z,3.10
2022-08-26T18:34:25.717Z,2.65
2022-08-26T18:39:32.471Z,3.16
2022-08-26T18:44:39.457Z,2.87
2022-08-26T18:49:46.693Z,3.27
2022-08-26T18:54:53.621Z,3.44
2022-08-26T19:00:00.711Z,2.98
2022-08-26T19:05:07.625Z,3.38
2022-08-26T19:10:14.562Z,3.04
2022-08-26T19:15:21.681Z,3.00
2022-08-26T19:20:28.735Z,3.22
2022-08-26T19:25:35.828Z,2.97
2022-08-26T19:30:42.848Z,3.11
2022-08-26T19:35:49.847Z,3.09
2022-08-26T19:40:56.811Z,3.15
2022-08-26T19:46:03.781Z,3.42
2022-08-26T19:51:10.710Z,2.78
2022-08-26T19:56:17.846Z,3.04
2022-08-26T20:01:24.864Z,3.28
2022-08-26T20:06:31.931Z,3.03
2022-08-26T20:11:38.878Z,2.91
2022-08-26T20:16:45.971Z,2.85
2022-08-26T20:21:53.151Z,3.11
2022-08-26T20:27:03.266Z,3.45
2022-08-26T20:32:06.801Z,4.15
2022-08-26T20:37:13.796Z,3.27
2022-08-26T20:42:20.775Z,3.39
2022-08-26T20:47:27.856Z,3.00
2022-08-26T20:52:34.335Z,3.53
2022-08-26T20:57:41.460Z,3.17
2022-08-26T21:02:48.405Z,3.44
2022-08-26T21:07:55.501Z,3.57
2022-08-26T21:13:02.427Z,3.55
2022-08-26T21:18:09.612Z,3.48
2022-08-26T21:23:16.488Z,3.45
2022-08-26T21:28:23.575Z,3.49
2022-08-26T21:33:30.487Z,3.39
2022-08-26T21:38:39.049Z,3.48
2022-08-26T21:43:46.118Z,3.50
2022-08-26T21:48:53.265Z,3.62
2022-08-26T21:54:00.254Z,3.84
2022-08-26T21:59:07.211Z,3.95
2022-08-26T22:04:14.157Z,3.94
2022-08-26T22:09:21.186Z,3.74
2022-08-26T22:14:30.773Z,3.77
2022-08-26T22:19:45.953Z,3.42
2022-08-26T22:24:41.222Z,3.63
2022-08-26T22:29:48.215Z,3.75
2022-08-26T22:34:55.157Z,3.84
2022-08-26T22:40:02.206Z,4.13
2022-08-26T22:45:09.110Z,4.00
2022-08-26T22:50:16.243Z,4.00
2022-08-26T22:55:23.270Z,4.05
2022-08-26T23:00:32.398Z,3.87
2022-08-26T23:05:36.701Z,3.96
2022-08-26T23:10:43.890Z,4.24
2022-08-26T23:15:50.816Z,4.36
2022-08-26T23:20:57.889Z,4.84
2022-08-26T23:26:06.355Z,4.62
2022-08-26T23:31:11.510Z,4.75
2022-08-26T23:36:18.515Z,4.35
2022-08-26T23:41:25.035Z,4.26
2022-08-26T23:46:32.083Z,4.25
2022-08-26T23:51:39.280Z,4.74
2022-08-26T23:56:46.194Z,4.63
